Panus — HGKM — position and weather

sailwx.info

Track history (hours):
 
Tides and Currents Weather Stations Pressure Air Temp Water Temp Dewpoint Dewpoint Depression Visibility Wind Speed Wind Dir Waves Ship Positions

Panus

Last reported at 2017-Dec-17 15:28 UTC. Time now 2017-Dec-18 03:34 UTC.
Position N 45°32' E 020°06'.

Length 143 m; draft 25.5 m.

Type: Cargo ship. MMSI: 243071113.

Date/timePositionNaut miles runAvg speedWind from/ knotsBaromVisibWave heightAir tempDewpointWater temp
2017-Dec-17 15:28N 45°32' E 020°06'1 2.1
2017-Dec-17 15:00N 45°31' E 020°07'2 2.2
2017-Dec-17 14:04N 45°30' E 020°09'0 1.1
2017-Dec-17 13:59N 45°30' E 020°09'1 2.1
2017-Dec-17 13:30N 45°29' E 020°10'1 2.4
2017-Dec-17 12:59N 45°28' E 020°11'1 2.1
2017-Dec-17 12:30N 45°27' E 020°12'1 2.2
2017-Dec-17 11:52N 45°26' E 020°13'2 2.4
2017-Dec-17 11:01N 45°24' E 020°13'0 0.3
2017-Dec-17 10:58N 45°24' E 020°13'1 2.2
2017-Dec-17 10:17N 45°23' E 020°12'1 2.5
2017-Dec-17 09:55N 45°22' E 020°13'1 2.1
2017-Dec-17 09:30N 45°22' E 020°14'1 2.4
2017-Dec-17 08:53N 45°21' E 020°16'1 2.2
2017-Dec-17 08:30N 45°20' E 020°16'1 2.1
2017-Dec-17 08:00N 45°19' E 020°15'8 2.2
2017-Dec-17 04:33N 45°12' E 020°19'0 0.7
2017-Dec-17 04:29N 45°12' E 020°19'0 0.1
2017-Dec-17 04:00N 45°12' E 020°19'0 0.0
2017-Dec-16 22:14N 45°12' E 020°19'0 0.9
2017-Dec-16 21:54N 45°12' E 020°19'0 1.1
2017-Dec-16 21:30N 45°12' E 020°19'8 2.0
2017-Dec-16 17:14N 45°03' E 020°21'1 2.5
2017-Dec-16 17:00N 45°03' E 020°21'1 2.7
2017-Dec-16 16:30N 45°01' E 020°22'1 2.3
2017-Dec-16 16:00N 45°00' E 020°21'1 2.2
2017-Dec-16 15:30N 44°60' E 020°20'1 2.5
2017-Dec-16 15:00N 44°60' E 020°18'1 2.6
2017-Dec-16 14:30N 44°58' E 020°17'1 2.8
2017-Dec-16 14:00N 44°57' E 020°18'1 2.7
2017-Dec-16 13:30N 44°56' E 020°19'1 2.7
2017-Dec-16 13:00N 44°55' E 020°20'1 2.8
2017-Dec-16 12:30N 44°54' E 020°21'1 2.7
2017-Dec-16 12:00N 44°52' E 020°22'1 2.6
2017-Dec-16 11:30N 44°52' E 020°24'1 2.8
2017-Dec-16 11:00N 44°51' E 020°25'1 2.6
2017-Dec-16 10:30N 44°50' E 020°27'1 1.6
2017-Dec-16 10:01N 44°50' E 020°28'0 0.7
2017-Dec-16 09:30N 44°50' E 020°28'0 0.0
2017-Dec-16 09:00N 44°50' E 020°28'0 0.0
2017-Dec-16 08:30N 44°50' E 020°28'0 0.6
2017-Dec-16 08:00N 44°50' E 020°28'0 0.9
2017-Dec-16 07:30N 44°50' E 020°29'0 0.3
2017-Dec-16 07:00N 44°50' E 020°29'0 0.6
2017-Dec-16 06:30N 44°50' E 020°29'1 2.4
2017-Dec-16 06:00N 44°50' E 020°31'1 2.5
2017-Dec-16 05:30N 44°50' E 020°33'1 2.3
2017-Dec-16 05:00N 44°51' E 020°34'1 2.4
2017-Dec-16 04:30N 44°51' E 020°36'1 1.6
2017-Dec-16 04:00N 44°51' E 020°37'0 0.0
2017-Dec-16 03:30N 44°51' E 020°37'0 0.0
2017-Dec-16 03:00N 44°51' E 020°37'0 0.0
2017-Dec-16 02:30N 44°51' E 020°37'0 0.0
2017-Dec-16 02:00N 44°51' E 020°37'0 0.0
2017-Dec-16 01:30N 44°51' E 020°37'0 0.0
2017-Dec-16 01:00N 44°51' E 020°37'0 0.0
2017-Dec-16 00:30N 44°51' E 020°37'0 0.0
2017-Dec-16 00:00N 44°51' E 020°37'0 0.0
2017-Dec-15 23:31N 44°51' E 020°37'0 0.0
2017-Dec-15 23:01N 44°51' E 020°37'0 0.0
2017-Dec-15 22:30N 44°51' E 020°37'0 0.0
2017-Dec-15 22:00N 44°51' E 020°37'1 2.3
2017-Dec-15 21:30N 44°51' E 020°38'1 2.3
2017-Dec-15 21:00N 44°50' E 020°39'1 2.3
2017-Dec-15 20:30N 44°49' E 020°38'1 2.5
2017-Dec-15 20:00N 44°47' E 020°38'1 2.5
2017-Dec-15 19:30N 44°46' E 020°38'1 2.4
2017-Dec-15 19:00N 44°45' E 020°39'1 2.5
2017-Dec-15 18:30N 44°44' E 020°40'1 2.5
2017-Dec-15 18:00N 44°43' E 020°41'1 2.5
2017-Dec-15 17:30N 44°42' E 020°42'1 2.6
2017-Dec-15 16:59N 44°41' E 020°43'3 2.7
2017-Dec-15 16:02N 44°40' E 020°46'0 2.9
2017-Dec-15 15:59N 44°40' E 020°46'1 2.6
2017-Dec-15 15:29N 44°40' E 020°48'2 2.6
2017-Dec-15 14:47N 44°40' E 020°51'1 2.7
2017-Dec-15 14:30N 44°40' E 020°52'3 2.6
2017-Dec-15 13:18N 44°41' E 020°56'1 2.6
2017-Dec-15 12:56N 44°41' E 020°57'27 1.4
2017-Dec-14 16:49N 44°46' E 021°35'1 2.2
2017-Dec-14 16:22N 44°45' E 021°36'1 2.9
2017-Dec-14 15:55N 44°44' E 021°37'2 2.5
2017-Dec-14 15:01N 44°42' E 021°39'2 2.9
2017-Dec-14 14:23N 44°41' E 021°40'1 0.0
2017-Dec-13 06:50N 44°40' E 021°42'2 4.6
2017-Dec-13 06:22N 44°41' E 021°40'31 4.5
2017-Dec-12 23:24N 44°40' E 020°55'2 5.4
2017-Dec-12 23:00N 44°40' E 020°52'3 5.1
2017-Dec-12 22:31N 44°40' E 020°49'3 5.5
2017-Dec-12 22:00N 44°40' E 020°45'3 5.3
2017-Dec-12 21:30N 44°42' E 020°43'3 5.5
2017-Dec-12 21:00N 44°44' E 020°40'3 5.3
2017-Dec-12 20:30N 44°46' E 020°38'3 5.4
2017-Dec-12 20:00N 44°49' E 020°39'3 5.3
2017-Dec-12 19:30N 44°51' E 020°37'3 5.9
2017-Dec-12 19:01N 44°50' E 020°33'3 5.8
2017-Dec-12 18:30N 44°50' E 020°29'3 5.9
2017-Dec-12 18:00N 44°51' E 020°25'3 5.8
2017-Dec-12 17:30N 44°52' E 020°22'3 5.7
2017-Dec-12 17:00N 44°55' E 020°20'3 5.9
2017-Dec-12 16:30N 44°57' E 020°18'3 5.2
2017-Dec-12 15:59N 44°60' E 020°19'3 5.4
2017-Dec-12 15:30N 45°02' E 020°22'  
Track history (hours):
 
Tides and Currents Weather Stations Pressure Air Temp Water Temp Dewpoint Dewpoint Depression Visibility Wind Speed Wind Dir Waves Ship Positions

Panus

Last reported at 2017-Dec-17 15:28 UTC. Time now 2017-Dec-18 03:34 UTC.
Position N 45°32' E 020°06'.

Length 143 m; draft 25.5 m.

Type: Cargo ship. MMSI: 243071113.

Date/timePositionNaut miles runAvg speedWind from/ knotsBaromVisibWave heightAir tempDewpointWater temp
2017-Dec-17 15:28N 45°32' E 020°06'1 2.1
2017-Dec-17 15:00N 45°31' E 020°07'2 2.2
2017-Dec-17 14:04N 45°30' E 020°09'0 1.1
2017-Dec-17 13:59N 45°30' E 020°09'1 2.1
2017-Dec-17 13:30N 45°29' E 020°10'1 2.4
2017-Dec-17 12:59N 45°28' E 020°11'1 2.1
2017-Dec-17 12:30N 45°27' E 020°12'1 2.2
2017-Dec-17 11:52N 45°26' E 020°13'2 2.4
2017-Dec-17 11:01N 45°24' E 020°13'0 0.3
2017-Dec-17 10:58N 45°24' E 020°13'1 2.2
2017-Dec-17 10:17N 45°23' E 020°12'1 2.5
2017-Dec-17 09:55N 45°22' E 020°13'1 2.1
2017-Dec-17 09:30N 45°22' E 020°14'1 2.4
2017-Dec-17 08:53N 45°21' E 020°16'1 2.2
2017-Dec-17 08:30N 45°20' E 020°16'1 2.1
2017-Dec-17 08:00N 45°19' E 020°15'8 2.2
2017-Dec-17 04:33N 45°12' E 020°19'0 0.7
2017-Dec-17 04:29N 45°12' E 020°19'0 0.1
2017-Dec-17 04:00N 45°12' E 020°19'0 0.0
2017-Dec-16 22:14N 45°12' E 020°19'0 0.9
2017-Dec-16 21:54N 45°12' E 020°19'0 1.1
2017-Dec-16 21:30N 45°12' E 020°19'8 2.0
2017-Dec-16 17:14N 45°03' E 020°21'1 2.5
2017-Dec-16 17:00N 45°03' E 020°21'1 2.7
2017-Dec-16 16:30N 45°01' E 020°22'1 2.3
2017-Dec-16 16:00N 45°00' E 020°21'1 2.2
2017-Dec-16 15:30N 44°60' E 020°20'1 2.5
2017-Dec-16 15:00N 44°60' E 020°18'1 2.6
2017-Dec-16 14:30N 44°58' E 020°17'1 2.8
2017-Dec-16 14:00N 44°57' E 020°18'1 2.7
2017-Dec-16 13:30N 44°56' E 020°19'1 2.7
2017-Dec-16 13:00N 44°55' E 020°20'1 2.8
2017-Dec-16 12:30N 44°54' E 020°21'1 2.7
2017-Dec-16 12:00N 44°52' E 020°22'1 2.6
2017-Dec-16 11:30N 44°52' E 020°24'1 2.8
2017-Dec-16 11:00N 44°51' E 020°25'1 2.6
2017-Dec-16 10:30N 44°50' E 020°27'1 1.6
2017-Dec-16 10:01N 44°50' E 020°28'0 0.7
2017-Dec-16 09:30N 44°50' E 020°28'0 0.0
2017-Dec-16 09:00N 44°50' E 020°28'0 0.0
2017-Dec-16 08:30N 44°50' E 020°28'0 0.6
2017-Dec-16 08:00N 44°50' E 020°28'0 0.9
2017-Dec-16 07:30N 44°50' E 020°29'0 0.3
2017-Dec-16 07:00N 44°50' E 020°29'0 0.6
2017-Dec-16 06:30N 44°50' E 020°29'1 2.4
2017-Dec-16 06:00N 44°50' E 020°31'1 2.5
2017-Dec-16 05:30N 44°50' E 020°33'1 2.3
2017-Dec-16 05:00N 44°51' E 020°34'1 2.4
2017-Dec-16 04:30N 44°51' E 020°36'1 1.6
2017-Dec-16 04:00N 44°51' E 020°37'0 0.0
2017-Dec-16 03:30N 44°51' E 020°37'0 0.0
2017-Dec-16 03:00N 44°51' E 020°37'0 0.0
2017-Dec-16 02:30N 44°51' E 020°37'0 0.0
2017-Dec-16 02:00N 44°51' E 020°37'0 0.0
2017-Dec-16 01:30N 44°51' E 020°37'0 0.0
2017-Dec-16 01:00N 44°51' E 020°37'0 0.0
2017-Dec-16 00:30N 44°51' E 020°37'0 0.0
2017-Dec-16 00:00N 44°51' E 020°37'0 0.0
2017-Dec-15 23:31N 44°51' E 020°37'0 0.0
2017-Dec-15 23:01N 44°51' E 020°37'0 0.0
2017-Dec-15 22:30N 44°51' E 020°37'0 0.0
2017-Dec-15 22:00N 44°51' E 020°37'1 2.3
2017-Dec-15 21:30N 44°51' E 020°38'1 2.3
2017-Dec-15 21:00N 44°50' E 020°39'1 2.3
2017-Dec-15 20:30N 44°49' E 020°38'1 2.5
2017-Dec-15 20:00N 44°47' E 020°38'1 2.5
2017-Dec-15 19:30N 44°46' E 020°38'1 2.4
2017-Dec-15 19:00N 44°45' E 020°39'1 2.5
2017-Dec-15 18:30N 44°44' E 020°40'1 2.5
2017-Dec-15 18:00N 44°43' E 020°41'1 2.5
2017-Dec-15 17:30N 44°42' E 020°42'1 2.6
2017-Dec-15 16:59N 44°41' E 020°43'3 2.7
2017-Dec-15 16:02N 44°40' E 020°46'0 2.9
2017-Dec-15 15:59N 44°40' E 020°46'1 2.6
2017-Dec-15 15:29N 44°40' E 020°48'2 2.6
2017-Dec-15 14:47N 44°40' E 020°51'1 2.7
2017-Dec-15 14:30N 44°40' E 020°52'3 2.6
2017-Dec-15 13:18N 44°41' E 020°56'1 2.6
2017-Dec-15 12:56N 44°41' E 020°57'27 1.4
2017-Dec-14 16:49N 44°46' E 021°35'1 2.2
2017-Dec-14 16:22N 44°45' E 021°36'1 2.9
2017-Dec-14 15:55N 44°44' E 021°37'2 2.5
2017-Dec-14 15:01N 44°42' E 021°39'2 2.9
2017-Dec-14 14:23N 44°41' E 021°40'1 0.0
2017-Dec-13 06:50N 44°40' E 021°42'2 4.6
2017-Dec-13 06:22N 44°41' E 021°40'31 4.5
2017-Dec-12 23:24N 44°40' E 020°55'2 5.4
2017-Dec-12 23:00N 44°40' E 020°52'3 5.1
2017-Dec-12 22:31N 44°40' E 020°49'3 5.5
2017-Dec-12 22:00N 44°40' E 020°45'3 5.3
2017-Dec-12 21:30N 44°42' E 020°43'3 5.5
2017-Dec-12 21:00N 44°44' E 020°40'3 5.3
2017-Dec-12 20:30N 44°46' E 020°38'3 5.4
2017-Dec-12 20:00N 44°49' E 020°39'3 5.3
2017-Dec-12 19:30N 44°51' E 020°37'3 5.9
2017-Dec-12 19:01N 44°50' E 020°33'3 5.8
2017-Dec-12 18:30N 44°50' E 020°29'3 5.9
2017-Dec-12 18:00N 44°51' E 020°25'3 5.8
2017-Dec-12 17:30N 44°52' E 020°22'3 5.7
2017-Dec-12 17:00N 44°55' E 020°20'3 5.9
2017-Dec-12 16:30N 44°57' E 020°18'3 5.2
2017-Dec-12 15:59N 44°60' E 020°19'3 5.4
2017-Dec-12 15:30N 45°02' E 020°22'  

Dump ship's entire track history